Time;durP1;ratioP1;P1;durP2;ratioP2;P2;SDS_P1;SDS_P2;PMS_P1;PMS_P2;Temp;Humidity;BMP_temperature;BMP_pressure;BME280_temperature;BME280_humidity;BME280_pressure;Samples;Min_cycle;Max_cycle;Signal;HPM_P1;HPM_P2
2021/01/06 00:02:09;;;;;;;10.10;6.97;;;2.50;93.40;;;;;;4945682;28;20039;-83
2021/01/06 00:04:35;;;;;;;8.20;6.25;;;2.50;93.80;;;;;;4947871;28;20065;-83
2021/01/06 00:07:01;;;;;;;7.80;6.43;;;2.50;93.40;;;;;;4974742;28;20543;-82
2021/01/06 00:09:26;;;;;;;10.20;6.97;;;2.50;93.50;;;;;;4951593;28;20051;-82
2021/01/06 00:11:52;;;;;;;10.68;6.78;;;2.50;93.40;;;;;;4952255;29;20035;-82
2021/01/06 00:14:18;;;;;;;8.30;6.30;;;2.40;93.40;;;;;;4948391;28;20097;-82
2021/01/06 00:16:52;;;;;;;8.65;6.80;;;2.40;93.40;;;;;;4950115;28;20665;-82
2021/01/06 00:19:18;;;;;;;11.38;6.72;;;2.40;93.60;;;;;;4942787;28;20150;-83
2021/01/06 00:21:43;;;;;;;9.95;6.63;;;2.40;93.60;;;;;;4955049;29;20174;-83
2021/01/06 00:24:10;;;;;;;7.80;6.72;;;2.40;93.70;;;;;;4952371;28;20047;-83
2021/01/06 00:26:36;;;;;;;9.38;6.53;;;2.40;93.70;;;;;;4947740;28;20044;-83
2021/01/06 00:29:08;;;;;;;9.27;6.72;;;2.40;93.80;;;;;;4943912;28;20039;-83
2021/01/06 00:31:41;;;;;;;8.82;6.25;;;2.40;93.70;;;;;;4957851;28;20062;-83
2021/01/06 00:34:07;;;;;;;9.82;6.60;;;2.40;93.50;;;;;;4939322;28;20528;-83
2021/01/06 00:36:33;;;;;;;10.52;6.93;;;2.40;93.60;;;;;;4984318;28;20055;-83
2021/01/06 00:38:59;;;;;;;10.35;7.22;;;2.40;93.90;;;;;;4948397;28;20112;-83
2021/01/06 00:41:35;;;;;;;11.95;7.30;;;2.40;93.70;;;;;;4955245;28;20392;-83
2021/01/06 00:44:02;;;;;;;12.70;7.28;;;2.40;93.70;;;;;;4946287;28;20047;-83
2021/01/06 00:46:33;;;;;;;11.15;7.00;;;2.40;93.70;;;;;;4955357;28;20058;-83
2021/01/06 00:49:00;;;;;;;10.48;7.15;;;2.40;93.70;;;;;;4944162;28;20052;-83
2021/01/06 00:51:27;;;;;;;9.43;7.00;;;2.50;93.90;;;;;;4949906;28;20052;-83
2021/01/06 00:53:52;;;;;;;11.93;7.65;;;2.40;93.80;;;;;;4943217;28;20042;-83
2021/01/06 00:56:30;;;;;;;10.32;7.03;;;2.40;93.90;;;;;;4985537;28;20597;-83
2021/01/06 00:58:57;;;;;;;11.15;7.32;;;2.40;93.90;;;;;;4950904;28;20118;-83
2021/01/06 01:01:24;;;;;;;8.32;6.82;;;2.40;93.60;;;;;;4943549;29;20134;-83
2021/01/06 01:03:50;;;;;;;12.70;7.82;;;2.50;94.00;;;;;;4952683;28;20428;-83
2021/01/06 01:06:30;;;;;;;9.55;6.80;;;2.50;93.80;;;;;;4938441;28;20111;-83
2021/01/06 01:08:57;;;;;;;10.43;7.18;;;2.50;93.80;;;;;;4953309;28;20031;-83
2021/01/06 01:11:24;;;;;;;10.88;8.13;;;2.50;93.60;;;;;;4944984;28;20126;-83
2021/01/06 01:13:51;;;;;;;10.40;6.90;;;2.40;93.70;;;;;;4946998;29;20035;-83
2021/01/06 01:16:19;;;;;;;11.00;6.30;;;2.40;93.80;;;;;;4939588;28;20070;-83
2021/01/06 01:18:45;;;;;;;11.00;7.25;;;2.40;93.60;;;;;;4954026;29;20035;-83
2021/01/06 01:21:10;;;;;;;8.63;7.05;;;2.40;93.70;;;;;;4945635;28;20059;-83
2021/01/06 01:23:36;;;;;;;10.82;7.60;;;2.40;93.90;;;;;;4953067;28;20031;-82
2021/01/06 01:26:02;;;;;;;9.90;7.30;;;2.40;93.90;;;;;;4948832;28;20051;-80
2021/01/06 01:28:28;;;;;;;11.55;8.35;;;2.40;94.10;;;;;;4984070;28;20055;-80
2021/01/06 01:30:55;;;;;;;10.27;7.50;;;2.40;94.00;;;;;;4944969;28;20035;-80
2021/01/06 01:33:24;;;;;;;8.85;6.65;;;2.50;94.20;;;;;;4951010;28;20118;-80
2021/01/06 01:35:49;;;;;;;13.05;7.22;;;2.40;93.80;;;;;;4946709;28;20047;-80
2021/01/06 01:38:24;;;;;;;10.00;7.13;;;2.40;93.70;;;;;;4952702;28;20050;-80
2021/01/06 01:41:06;;;;;;;;;;;2.40;93.80;;;;;;4949400;28;20183;-81
2021/01/06 01:43:32;;;;;;;10.00;6.53;;;2.40;92.90;;;;;;4955831;28;19922;-80
2021/01/06 01:45:58;;;;;;;9.68;7.50;;;2.40;93.30;;;;;;4952777;28;20047;-80
2021/01/06 01:48:32;;;;;;;10.20;7.45;;;2.40;93.80;;;;;;4950003;28;20054;-80
2021/01/06 01:51:25;;;;;;;12.15;7.57;;;2.40;93.90;;;;;;4947863;28;20056;-80
2021/01/06 01:54:01;;;;;;;10.52;7.07;;;2.40;93.80;;;;;;4949142;28;20412;-80
2021/01/06 01:56:40;;;;;;;9.00;7.00;;;2.40;93.80;;;;;;4942638;28;20035;-80
2021/01/06 01:59:17;;;;;;;14.23;7.22;;;2.40;94.10;;;;;;4954770;28;20276;-80
2021/01/06 02:01:46;;;;;;;11.15;7.10;;;2.40;93.70;;;;;;4946367;28;23878;-80
2021/01/06 02:04:21;;;;;;;10.88;7.15;;;2.40;93.80;;;;;;4953336;28;20043;-80
2021/01/06 02:07:17;;;;;;;11.18;7.65;;;2.40;93.60;;;;;;4949833;28;20048;-81
2021/01/06 02:10:04;;;;;;;9.27;6.95;;;2.40;93.60;;;;;;4943937;29;20057;-81
2021/01/06 02:13:10;;;;;;;7.55;6.55;;;2.40;94.00;;;;;;4946336;28;20508;-81
2021/01/06 02:15:47;;;;;;;10.55;6.53;;;2.40;93.90;;;;;;4934277;29;20079;-81
2021/01/06 02:18:15;;;;;;;10.55;6.72;;;2.40;93.70;;;;;;4936747;28;20091;-81
2021/01/06 02:20:58;;;;;;;10.00;6.32;;;2.40;93.80;;;;;;4916147;29;20055;-81
2021/01/06 02:23:25;;;;;;;12.32;6.63;;;2.40;93.70;;;;;;4924526;29;20622;-81
2021/01/06 02:25:51;;;;;;;10.27;6.60;;;2.40;93.70;;;;;;4911882;29;20414;-81
2021/01/06 02:28:17;;;;;;;9.63;6.63;;;2.40;93.70;;;;;;4926843;29;20176;-81
2021/01/06 02:30:43;;;;;;;9.05;6.82;;;2.40;93.70;;;;;;4935299;29;20366;-81
2021/01/06 02:33:09;;;;;;;9.60;6.25;;;2.40;93.80;;;;;;4927255;29;20047;-81
2021/01/06 02:35:34;;;;;;;10.75;6.53;;;2.40;93.70;;;;;;4916688;29;20054;-81
2021/01/06 02:38:00;;;;;;;11.25;6.32;;;2.40;94.10;;;;;;4917523;29;20055;-81
2021/01/06 02:40:26;;;;;;;11.77;6.78;;;2.40;93.70;;;;;;4933429;29;20046;-81
2021/01/06 02:42:52;;;;;;;8.15;5.68;;;2.40;93.70;;;;;;4923818;29;20145;-81
2021/01/06 02:45:19;;;;;;;11.20;6.90;;;2.40;93.60;;;;;;4928167;29;20094;-81
2021/01/06 02:47:49;;;;;;;9.32;6.53;;;2.40;93.60;;;;;;4931968;29;20123;-81
2021/01/06 02:50:17;;;;;;;10.02;6.40;;;2.30;93.70;;;;;;4938965;29;20056;-81
2021/01/06 02:52:51;;;;;;;10.20;6.63;;;2.30;93.90;;;;;;4949019;28;20123;-81
2021/01/06 02:55:18;;;;;;;10.20;6.60;;;2.30;94.00;;;;;;4941859;28;20558;-81
2021/01/06 02:57:46;;;;;;;10.55;6.88;;;2.40;93.90;;;;;;4947062;29;21048;-81
2021/01/06 03:00:20;;;;;;;11.25;6.53;;;2.30;93.90;;;;;;4951763;28;20041;-81
2021/01/06 03:02:48;;;;;;;10.20;7.43;;;2.30;94.20;;;;;;4979909;28;20082;-81
2021/01/06 03:05:34;;;;;;;13.05;7.15;;;2.30;93.90;;;;;;4950345;28;20126;-81
2021/01/06 03:08:00;;;;;;;12.93;6.93;;;2.40;93.90;;;;;;4957763;28;20114;-81
2021/01/06 03:10:27;;;;;;;10.63;7.40;;;2.30;93.90;;;;;;4933643;28;20075;-81
2021/01/06 03:12:55;;;;;;;10.20;7.70;;;2.30;94.20;;;;;;4951527;29;20058;-81
2021/01/06 03:15:23;;;;;;;9.68;7.07;;;2.40;94.10;;;;;;4945987;28;20063;-81
2021/01/06 03:17:50;;;;;;;10.43;7.25;;;2.40;94.40;;;;;;4958132;28;20038;-81
2021/01/06 03:20:27;;;;;;;10.10;6.78;;;2.40;94.20;;;;;;4947899;28;20035;-81
2021/01/06 03:23:04;;;;;;;13.05;7.55;;;2.30;94.30;;;;;;4951046;29;20076;-81
2021/01/06 03:25:29;;;;;;;12.90;7.35;;;2.30;94.00;;;;;;4941966;28;20046;-81
2021/01/06 03:27:57;;;;;;;12.57;7.22;;;2.30;93.90;;;;;;4951501;29;20031;-81
2021/01/06 03:30:28;;;;;;;10.38;7.32;;;2.30;94.40;;;;;;4965909;28;20478;-81
2021/01/06 03:33:22;;;;;;;11.13;7.63;;;2.40;94.30;;;;;;4959989;28;20028;-81
2021/01/06 03:35:58;;;;;;;13.07;7.50;;;2.40;94.50;;;;;;4949958;28;20063;-81
2021/01/06 03:38:57;;;;;;;10.90;7.07;;;2.30;94.50;;;;;;4954564;28;20035;-81
2021/01/06 03:41:25;;;;;;;12.00;7.45;;;2.30;94.30;;;;;;4948983;28;20047;-81
2021/01/06 03:43:55;;;;;;;11.40;6.82;;;2.30;94.20;;;;;;4963654;28;20055;-81
2021/01/06 03:46:26;;;;;;;14.82;7.82;;;2.30;94.40;;;;;;4950033;28;20061;-81
2021/01/06 03:49:01;;;;;;;10.18;7.90;;;2.30;94.40;;;;;;4955789;28;20504;-81
2021/01/06 03:51:35;;;;;;;13.48;7.70;;;2.40;94.40;;;;;;4938300;28;20067;-81
2021/01/06 03:54:22;;;;;;;11.17;7.77;;;2.30;94.30;;;;;;4950737;28;20035;-82
2021/01/06 03:56:50;;;;;;;10.50;7.55;;;2.30;94.60;;;;;;4956346;28;20054;-81
2021/01/06 03:59:24;;;;;;;12.13;8.50;;;2.30;94.50;;;;;;4955432;28;20055;-81
2021/01/06 04:02:13;;;;;;;13.35;8.32;;;2.30;94.70;;;;;;4947830;28;20640;-81
2021/01/06 04:04:53;;;;;;;12.52;8.48;;;2.30;94.80;;;;;;4947922;29;20131;-80
2021/01/06 04:07:31;;;;;;;14.30;8.82;;;2.30;94.90;;;;;;4970344;28;20560;-80
2021/01/06 04:10:14;;;;;;;10.68;8.55;;;2.30;94.50;;;;;;4951527;28;20501;-80
2021/01/06 04:12:40;;;;;;;11.35;7.47;;;2.30;94.70;;;;;;4972518;28;20958;-80
2021/01/06 04:15:08;;;;;;;12.93;9.15;;;2.30;94.50;;;;;;4956232;28;20059;-80
2021/01/06 04:17:36;;;;;;;14.40;8.50;;;2.30;94.60;;;;;;4982742;28;20043;-81
2021/01/06 04:20:09;;;;;;;13.70;9.35;;;2.30;94.80;;;;;;4981048;28;20563;-80
2021/01/06 04:23:08;;;;;;;11.07;8.25;;;2.30;94.60;;;;;;4941629;28;20051;-80
2021/01/06 04:25:46;;;;;;;13.52;7.72;;;2.30;94.30;;;;;;4915203;29;20048;-80
2021/01/06 04:28:24;;;;;;;13.45;8.48;;;2.30;94.20;;;;;;4940452;28;20421;-80
2021/01/06 04:30:54;;;;;;;11.45;8.75;;;2.30;94.30;;;;;;4932682;29;20051;-80
2021/01/06 04:33:21;;;;;;;12.73;8.75;;;2.30;94.20;;;;;;4944080;28;20052;-80
2021/01/06 04:35:48;;;;;;;15.13;8.82;;;2.30;94.40;;;;;;4932249;29;20805;-80
2021/01/06 04:38:19;;;;;;;8.88;7.78;;;2.30;94.40;;;;;;4930547;29;20063;-80
2021/01/06 04:40:47;;;;;;;15.00;8.93;;;2.30;94.50;;;;;;4921680;29;20485;-80
2021/01/06 04:43:37;;;;;;;12.68;9.20;;;2.30;94.40;;;;;;4926557;29;20123;-80
2021/01/06 04:46:33;;;;;;;14.82;8.82;;;2.30;94.60;;;;;;4935609;29;20122;-80
2021/01/06 04:49:37;;;;;;;13.80;9.00;;;2.30;94.50;;;;;;4927712;29;20090;-80
2021/01/06 04:52:17;;;;;;;14.27;8.80;;;2.30;94.40;;;;;;4896574;29;20478;-80
2021/01/06 04:54:52;;;;;;;12.68;9.25;;;2.30;94.40;;;;;;4894414;29;20434;-80
2021/01/06 04:57:27;;;;;;;11.88;9.02;;;2.30;94.50;;;;;;4904603;29;20509;-80
2021/01/06 05:00:17;;;;;;;12.10;8.85;;;2.30;94.50;;;;;;4896379;29;20051;-80
2021/01/06 05:02:52;;;;;;;16.42;8.90;;;2.30;94.40;;;;;;4937428;29;20055;-80
2021/01/06 05:05:29;;;;;;;10.85;8.88;;;2.30;94.30;;;;;;4929755;29;20054;-80
2021/01/06 05:08:19;;;;;;;11.63;8.48;;;2.30;94.70;;;;;;4919311;29;20278;-80
2021/01/06 05:10:51;;;;;;;11.02;8.23;;;2.30;94.90;;;;;;4929373;28;20047;-80
2021/01/06 05:13:49;;;;;;;14.05;8.05;;;2.30;94.80;;;;;;4937066;28;20051;-80
2021/01/06 05:16:17;;;;;;;13.35;8.38;;;2.30;94.70;;;;;;4867355;29;20225;-80
2021/01/06 05:18:44;;;;;;;12.40;7.80;;;2.20;94.60;;;;;;4877576;29;20049;-80
2021/01/06 05:21:16;;;;;;;11.23;7.22;;;2.20;94.70;;;;;;4866105;29;20053;-80
2021/01/06 05:23:43;;;;;;;11.70;8.65;;;2.30;94.60;;;;;;4873609;29;20470;-80
2021/01/06 05:26:10;;;;;;;14.25;8.15;;;2.20;94.70;;;;;;4864118;29;20153;-80
2021/01/06 05:28:36;;;;;;;13.95;8.80;;;2.20;94.90;;;;;;4882086;29;20057;-80
2021/01/06 05:31:01;;;;;;;12.57;8.93;;;2.20;94.70;;;;;;4888164;29;20056;-80
2021/01/06 05:33:34;;;;;;;11.07;7.68;;;2.20;94.60;;;;;;4892912;29;20763;-80
2021/01/06 05:36:01;;;;;;;11.40;8.05;;;2.20;94.80;;;;;;4886633;29;20092;-80
2021/01/06 05:38:27;;;;;;;12.40;8.25;;;2.20;94.90;;;;;;4869824;29;20044;-80
2021/01/06 05:40:53;;;;;;;12.63;7.85;;;2.20;95.00;;;;;;4883426;29;20060;-80
2021/01/06 05:43:21;;;;;;;11.30;7.45;;;2.20;94.80;;;;;;4893542;29;20055;-80
2021/01/06 05:45:54;;;;;;;12.32;7.47;;;2.20;94.90;;;;;;4888447;29;20067;-80
2021/01/06 05:48:22;;;;;;;12.23;7.47;;;2.20;95.00;;;;;;4875680;29;20072;-80
2021/01/06 05:51:15;;;;;;;11.63;7.25;;;2.20;95.10;;;;;;4883385;29;20084;-80
2021/01/06 05:53:55;;;;;;;13.15;7.22;;;2.20;95.20;;;;;;4946419;29;20073;-80
2021/01/06 05:56:24;;;;;;;15.80;8.13;;;2.20;95.10;;;;;;4975855;28;20059;-80
2021/01/06 05:58:56;;;;;;;14.55;7.15;;;2.20;95.10;;;;;;4954381;28;20043;-80
2021/01/06 06:01:43;;;;;;;10.93;7.00;;;2.10;95.20;;;;;;4943491;28;20063;-80
2021/01/06 06:04:48;;;;;;;12.50;7.88;;;2.10;95.30;;;;;;4954165;29;20047;-80
2021/01/06 06:07:13;;;;;;;11.18;7.57;;;2.10;95.20;;;;;;4913990;29;20095;-80
2021/01/06 06:09:58;;;;;;;12.32;7.10;;;2.10;95.20;;;;;;4958932;28;20524;-80
2021/01/06 06:12:44;;;;;;;15.23;7.57;;;2.00;95.10;;;;;;4947276;28;20045;-80
2021/01/06 06:15:16;;;;;;;13.43;7.55;;;2.00;95.30;;;;;;4955645;28;20341;-80
2021/01/06 06:18:14;;;;;;;10.73;6.75;;;2.00;95.20;;;;;;4949090;28;20036;-80
2021/01/06 06:20:58;;;;;;;11.73;7.03;;;2.10;95.30;;;;;;4958617;28;20114;-80
2021/01/06 06:23:49;;;;;;;10.95;6.93;;;2.00;95.20;;;;;;4949317;28;20043;-80
2021/01/06 06:26:24;;;;;;;12.18;7.28;;;2.00;95.20;;;;;;4955711;28;20047;-80
2021/01/06 06:29:01;;;;;;;10.95;6.90;;;2.00;95.20;;;;;;4940488;28;20043;-81
2021/01/06 06:31:30;;;;;;;11.25;6.30;;;2.00;95.20;;;;;;4952869;29;20035;-80
2021/01/06 06:34:06;;;;;;;11.32;6.82;;;2.00;95.20;;;;;;4945205;28;20625;-80
2021/01/06 06:36:40;;;;;;;10.35;6.75;;;2.00;95.20;;;;;;4957142;29;20051;-80
2021/01/06 06:39:30;;;;;;;9.63;6.68;;;2.00;95.30;;;;;;4943414;28;20047;-80
2021/01/06 06:42:19;;;;;;;13.57;6.70;;;2.00;95.20;;;;;;4986493;28;20035;-80
2021/01/06 06:44:51;;;;;;;11.23;6.45;;;2.00;95.40;;;;;;4945743;28;20727;-80
2021/01/06 06:47:21;;;;;;;12.10;6.43;;;2.00;95.40;;;;;;4948377;28;20071;-80
2021/01/06 06:49:55;;;;;;;9.85;6.78;;;1.90;95.30;;;;;;4911482;29;20052;-80
2021/01/06 06:52:44;;;;;;;11.98;5.60;;;1.90;95.30;;;;;;4929284;29;20067;-80
2021/01/06 06:55:31;;;;;;;9.45;5.47;;;1.90;95.20;;;;;;4934605;29;20056;-80
2021/01/06 06:58:27;;;;;;;10.95;5.63;;;1.90;95.20;;;;;;4942649;29;20527;-80
2021/01/06 07:00:54;;;;;;;9.07;5.57;;;2.00;95.20;;;;;;4948741;28;20415;-80
2021/01/06 07:03:28;;;;;;;8.77;5.00;;;1.90;95.20;;;;;;4929155;29;20063;-82
2021/01/06 07:05:57;;;;;;;;;;;1.90;95.30;;;;;;4933639;29;20040;-81
2021/01/06 07:08:33;;;;;;;9.20;4.93;;;1.90;94.80;;;;;;4944404;28;19923;-81
2021/01/06 07:11:27;;;;;;;17.20;5.90;;;1.90;95.00;;;;;;4945446;28;20083;-81
2021/01/06 07:14:13;;;;;;;9.27;4.97;;;1.90;95.30;;;;;;4931986;29;20076;-82
2021/01/06 07:16:50;;;;;;;6.93;4.80;;;1.90;95.20;;;;;;4948077;29;20131;-81
2021/01/06 07:19:21;;;;;;;8.77;4.93;;;1.90;95.40;;;;;;4941852;28;20059;-81
2021/01/06 07:21:58;;;;;;;10.05;5.40;;;2.00;95.50;;;;;;4964214;28;20066;-82
2021/01/06 07:24:27;;;;;;;10.02;5.32;;;1.90;95.40;;;;;;4945341;28;20128;-81
2021/01/06 07:27:00;;;;;;;7.63;4.95;;;2.00;95.50;;;;;;4962024;28;20043;-80
2021/01/06 07:29:32;;;;;;;13.00;5.83;;;2.00;95.50;;;;;;4944259;28;20121;-82
2021/01/06 07:32:10;;;;;;;11.43;5.85;;;1.90;95.40;;;;;;4982631;28;20170;-81
2021/01/06 07:34:50;;;;;;;11.27;5.88;;;2.00;95.60;;;;;;4986284;28;20094;-80
2021/01/06 07:37:38;;;;;;;14.80;5.85;;;2.00;95.50;;;;;;4957491;28;20047;-81
2021/01/06 07:40:29;;;;;;;11.13;5.78;;;2.00;95.60;;;;;;4961000;28;20106;-81
2021/01/06 07:43:07;;;;;;;9.13;5.88;;;2.00;95.60;;;;;;4989271;28;20043;-81
2021/01/06 07:45:42;;;;;;;14.07;5.13;;;2.00;95.50;;;;;;4954401;28;20043;-81
2021/01/06 07:48:16;;;;;;;13.98;6.68;;;2.00;95.60;;;;;;4959341;28;20106;-81
2021/01/06 07:51:02;;;;;;;9.13;5.75;;;2.00;95.70;;;;;;4956498;28;20051;-82
2021/01/06 07:53:47;;;;;;;13.63;6.50;;;2.00;95.80;;;;;;4966901;28;20587;-82
2021/01/06 07:56:30;;;;;;;12.40;5.68;;;2.00;95.80;;;;;;4948783;28;20053;-82
2021/01/06 07:58:58;;;;;;;9.70;5.97;;;2.00;95.70;;;;;;4959204;29;20142;-81
2021/01/06 08:01:33;;;;;;;9.43;5.47;;;2.00;95.60;;;;;;4948787;28;20409;-82
2021/01/06 08:04:29;;;;;;;10.82;6.15;;;2.00;95.70;;;;;;4952200;28;20091;-82
2021/01/06 08:07:06;;;;;;;11.52;5.13;;;2.00;95.70;;;;;;4948865;28;20592;-82
2021/01/06 08:09:38;;;;;;;12.93;5.55;;;2.00;95.50;;;;;;4954579;29;20039;-80
2021/01/06 08:12:25;;;;;;;10.15;5.32;;;2.10;95.50;;;;;;4949465;29;20042;-81
2021/01/06 08:15:17;;;;;;;8.07;5.03;;;2.10;95.30;;;;;;4963921;28;20062;-81
2021/01/06 08:17:56;;;;;;;7.20;5.15;;;2.10;95.40;;;;;;4948393;28;20070;-80
2021/01/06 08:20:28;;;;;;;7.88;5.10;;;2.10;95.50;;;;;;4962629;28;20050;-80
2021/01/06 08:23:19;;;;;;;11.55;4.65;;;2.10;95.50;;;;;;4946236;28;20043;-81
2021/01/06 08:26:04;;;;;;;10.00;5.43;;;2.10;95.40;;;;;;4963121;28;20818;-81
2021/01/06 08:28:31;;;;;;;11.32;4.53;;;2.10;95.40;;;;;;4941825;28;20583;-81
2021/01/06 08:31:09;;;;;;;8.75;4.95;;;2.10;95.30;;;;;;4950185;28;20050;-81
2021/01/06 08:33:49;;;;;;;12.13;5.38;;;2.20;95.60;;;;;;4950471;28;20039;-82
2021/01/06 08:36:23;;;;;;;9.50;5.07;;;2.20;95.80;;;;;;4961961;28;20043;-81
2021/01/06 08:39:13;;;;;;;9.30;5.72;;;2.20;95.70;;;;;;4942537;28;20043;-81
2021/01/06 08:41:39;;;;;;;10.15;5.47;;;2.20;95.80;;;;;;4982314;28;20035;-81
2021/01/06 08:44:06;;;;;;;10.63;5.40;;;2.20;95.70;;;;;;4946572;28;20064;-82
2021/01/06 08:46:34;;;;;;;8.55;5.15;;;2.20;95.40;;;;;;4958155;28;20047;-81
2021/01/06 08:49:09;;;;;;;8.98;5.50;;;2.20;95.50;;;;;;4979731;28;20059;-82
2021/01/06 08:51:36;;;;;;;12.43;5.95;;;2.20;95.40;;;;;;4970572;28;20506;-81
2021/01/06 08:54:15;;;;;;;13.60;7.40;;;2.20;95.20;;;;;;4923598;29;20067;-82
2021/01/06 08:56:42;;;;;;;17.70;9.63;;;2.20;95.20;;;;;;4953142;29;20047;-81
2021/01/06 08:59:25;;;;;;;17.58;10.70;;;2.20;94.90;;;;;;4946844;28;20093;-82
2021/01/06 09:01:58;;;;;;;16.10;9.73;;;2.20;95.10;;;;;;4972204;28;20476;-81
2021/01/06 09:04:39;;;;;;;10.70;6.95;;;2.20;95.10;;;;;;4940348;28;20064;-81
2021/01/06 09:07:30;;;;;;;14.73;6.43;;;2.20;95.20;;;;;;4944814;29;20090;-81
2021/01/06 09:10:27;;;;;;;13.40;6.38;;;2.30;95.10;;;;;;4946641;28;20039;-81
2021/01/06 09:13:09;;;;;;;13.27;7.88;;;2.30;95.30;;;;;;4956617;29;20081;-81
2021/01/06 09:16:00;;;;;;;11.90;7.80;;;2.30;95.30;;;;;;4942381;28;20046;-81
2021/01/06 09:18:57;;;;;;;13.95;6.60;;;2.30;95.10;;;;;;4945985;29;20056;-81
2021/01/06 09:21:31;;;;;;;11.63;6.25;;;2.30;95.10;;;;;;4969694;28;20062;-82
2021/01/06 09:24:22;;;;;;;11.20;5.25;;;2.30;95.20;;;;;;4906372;29;20762;-81
2021/01/06 09:26:59;;;;;;;10.15;4.70;;;2.30;95.10;;;;;;4916804;29;20491;-81
2021/01/06 09:29:27;;;;;;;7.75;4.30;;;2.30;95.00;;;;;;4932231;29;20477;-81
2021/01/06 09:31:56;;;;;;;10.60;4.68;;;2.30;95.00;;;;;;4905087;29;20587;-81
2021/01/06 09:34:31;;;;;;;7.80;4.10;;;2.30;94.80;;;;;;4917960;29;20078;-81
2021/01/06 09:36:58;;;;;;;10.02;4.80;;;2.30;95.00;;;;;;4908601;29;20296;-81
2021/01/06 09:39:31;;;;;;;10.50;4.45;;;2.30;95.00;;;;;;4936227;29;20071;-82
2021/01/06 09:41:59;;;;;;;9.98;4.28;;;2.40;95.10;;;;;;4927518;29;20111;-82
2021/01/06 09:44:28;;;;;;;7.22;2.80;;;2.40;95.10;;;;;;4919797;29;20051;-81
2021/01/06 09:46:59;;;;;;;8.57;3.30;;;2.40;95.10;;;;;;4934217;28;20095;-82
2021/01/06 09:49:36;;;;;;;7.38;3.63;;;2.40;94.80;;;;;;4919417;29;20048;-82
2021/01/06 09:52:06;;;;;;;4.53;2.95;;;2.40;94.90;;;;;;4932873;29;20488;-82
2021/01/06 09:54:33;;;;;;;9.80;4.15;;;2.40;94.70;;;;;;4904054;29;20048;-82
2021/01/06 09:57:00;;;;;;;7.53;3.97;;;2.40;94.70;;;;;;4928183;29;20040;-82
2021/01/06 09:59:33;;;;;;;5.80;3.78;;;2.50;94.60;;;;;;4920631;29;20043;-82
2021/01/06 10:02:20;;;;;;;10.48;4.82;;;2.40;94.30;;;;;;4897998;29;20161;-80
2021/01/06 10:04:48;;;;;;;8.23;3.90;;;2.50;94.50;;;;;;4923268;29;20488;-81
2021/01/06 10:07:35;;;;;;;8.00;4.13;;;2.50;93.90;;;;;;4916239;29;20079;-82
2021/01/06 10:10:15;;;;;;;10.32;4.03;;;2.50;94.20;;;;;;4915682;29;20062;-81
2021/01/06 10:12:57;;;;;;;8.60;3.85;;;2.50;94.40;;;;;;4913148;29;20055;-82
2021/01/06 10:15:38;;;;;;;8.02;4.03;;;2.50;94.40;;;;;;4917910;29;20048;-82
2021/01/06 10:18:32;;;;;;;7.25;4.72;;;2.50;94.20;;;;;;4936385;29;20047;-82
2021/01/06 10:21:00;;;;;;;12.70;5.28;;;2.50;94.20;;;;;;4946358;29;20165;-82
2021/01/06 10:23:35;;;;;;;12.55;5.97;;;2.50;94.30;;;;;;4932398;29;20054;-81
2021/01/06 10:26:36;;;;;;;11.48;6.32;;;2.50;94.00;;;;;;4942283;29;20047;-82
2021/01/06 10:29:28;;;;;;;14.90;7.50;;;2.50;94.20;;;;;;4859221;29;21563;-81
2021/01/06 10:32:11;;;;;;;9.82;4.93;;;2.50;94.20;;;;;;4865038;29;20072;-82
2021/01/06 10:34:46;;;;;;;7.07;3.70;;;2.60;94.10;;;;;;4858851;29;20259;-82
2021/01/06 10:37:25;;;;;;;6.72;3.58;;;2.50;93.90;;;;;;4866313;29;20068;-82
2021/01/06 10:39:59;;;;;;;8.68;3.42;;;2.50;93.90;;;;;;4845368;29;20061;-82
2021/01/06 10:42:32;;;;;;;6.38;3.35;;;2.50;93.80;;;;;;4857492;29;20059;-82
2021/01/06 10:45:37;;;;;;;8.30;3.13;;;2.60;94.10;;;;;;4858319;29;20106;-82
2021/01/06 10:48:03;;;;;;;7.43;3.55;;;2.60;94.10;;;;;;4868750;29;20058;-81
2021/01/06 10:50:29;;;;;;;8.77;3.15;;;2.60;93.90;;;;;;4858051;29;20056;-81
2021/01/06 10:53:13;;;;;;;5.53;3.25;;;2.60;93.70;;;;;;4865994;29;20053;-81
2021/01/06 10:56:13;;;;;;;8.57;3.50;;;2.60;93.60;;;;;;4858632;29;20102;-81
2021/01/06 10:59:05;;;;;;;7.72;3.25;;;2.60;93.60;;;;;;4858505;29;20060;-81
2021/01/06 11:02:08;;;;;;;8.52;3.70;;;2.60;94.20;;;;;;4862560;29;20106;-81
2021/01/06 11:05:02;;;;;;;9.73;3.67;;;2.60;93.40;;;;;;4859344;29;20041;-82
2021/01/06 11:08:30;;;;;;;7.50;4.25;;;2.70;93.90;;;;;;4926878;29;20939;-81
2021/01/06 11:11:37;;;;;;;6.88;3.83;;;2.70;94.00;;;;;;4929137;29;20480;-82
2021/01/06 11:14:30;;;;;;;13.30;4.38;;;2.70;93.90;;;;;;4891362;29;20048;-82
2021/01/06 11:17:25;;;;;;;8.05;3.55;;;2.70;94.00;;;;;;4913190;29;20071;-85
2021/01/06 11:19:51;;;;;;;7.45;3.42;;;2.70;93.80;;;;;;4892836;29;20707;-82
2021/01/06 11:22:43;;;;;;;11.05;4.75;;;2.70;93.70;;;;;;4915002;29;20079;-82
2021/01/06 11:25:59;;;;;;;6.30;4.28;;;2.70;93.80;;;;;;4927175;29;20052;-82
2021/01/06 11:28:44;;;;;;;;;;;2.70;94.10;;;;;;4910428;29;20223;-82
2021/01/06 11:31:18;;;;;;;9.35;4.88;;;2.70;92.90;;;;;;4893854;29;20226;-82
2021/01/06 11:34:11;;;;;;;10.90;4.03;;;2.80;93.70;;;;;;4911368;29;20048;-82
2021/01/06 11:36:53;;;;;;;8.65;4.32;;;2.80;93.80;;;;;;4901825;29;20567;-82
2021/01/06 11:39:34;;;;;;;7.57;4.45;;;2.80;94.00;;;;;;4928094;29;20099;-82
2021/01/06 11:42:16;;;;;;;8.73;3.95;;;2.80;93.80;;;;;;4914670;29;20047;-82
2021/01/06 11:44:51;;;;;;;8.38;3.80;;;2.80;93.70;;;;;;4926961;29;20051;-84
2021/01/06 11:47:46;;;;;;;6.55;4.13;;;2.80;93.60;;;;;;4920171;29;20090;-84
2021/01/06 11:50:24;;;;;;;;;;;2.90;93.90;;;;;;4915053;29;20087;-85
2021/01/06 11:52:51;;;;;;;6.43;3.88;;;2.80;92.30;;;;;;4927773;29;20078;-86
2021/01/06 11:55:39;;;;;;;6.03;3.70;;;2.80;94.00;;;;;;4916332;29;20048;-84
2021/01/06 11:58:25;;;;;;;6.07;3.88;;;2.80;93.50;;;;;;4909330;29;20551;-84
2021/01/06 12:01:30;;;;;;;4.72;3.30;;;2.80;93.50;;;;;;4928166;29;20429;-84
2021/01/06 12:04:24;;;;;;;4.72;3.58;;;2.80;93.20;;;;;;4924786;29;20063;-84
2021/01/06 12:06:53;;;;;;;5.53;3.63;;;2.80;93.30;;;;;;4947066;28;20051;-84
2021/01/06 12:09:32;;;;;;;6.38;3.08;;;2.80;93.40;;;;;;4949622;29;20118;-84
2021/01/06 12:12:37;;;;;;;7.05;3.80;;;2.80;93.50;;;;;;4945983;28;20058;-84
2021/01/06 12:15:06;;;;;;;5.45;3.22;;;2.80;93.30;;;;;;4957627;28;20046;-85
2021/01/06 12:17:46;;;;;;;6.80;3.20;;;2.80;93.30;;;;;;4921183;29;20050;-84
2021/01/06 12:20:15;;;;;;;5.30;3.72;;;2.80;93.30;;;;;;4950810;29;20631;-85
2021/01/06 12:22:41;;;;;;;6.75;3.75;;;2.80;93.40;;;;;;4946305;28;20381;-85
2021/01/06 12:25:25;;;;;;;7.85;3.92;;;2.80;93.70;;;;;;4951341;28;20060;-85
2021/01/06 12:28:06;;;;;;;7.37;3.60;;;2.80;93.90;;;;;;4943311;28;20531;-84
2021/01/06 12:30:43;;;;;;;7.53;4.15;;;2.80;93.70;;;;;;4954541;29;20097;-85
2021/01/06 12:33:31;;;;;;;6.30;4.13;;;2.80;93.70;;;;;;4974766;28;20059;-84
2021/01/06 12:36:09;;;;;;;4.97;3.53;;;2.80;93.90;;;;;;4957990;28;20082;-84
2021/01/06 12:38:36;;;;;;;4.25;3.17;;;2.80;93.60;;;;;;4939364;28;20062;-85
2021/01/06 12:41:12;;;;;;;6.35;3.58;;;2.80;93.50;;;;;;4954456;28;20066;-85
2021/01/06 12:43:51;;;;;;;8.30;3.45;;;2.80;93.50;;;;;;4960381;28;20042;-85
2021/01/06 12:46:36;;;;;;;6.00;3.92;;;2.80;93.70;;;;;;4939431;28;20115;-85
2021/01/06 12:49:13;;;;;;;6.30;3.67;;;2.80;93.70;;;;;;4942917;28;20134;-85
2021/01/06 12:52:14;;;;;;;5.28;3.63;;;2.80;93.70;;;;;;4953982;28;20131;-84
2021/01/06 12:55:33;;;;;;;7.82;3.25;;;2.80;93.50;;;;;;4973284;28;20093;-84
2021/01/06 12:58:32;;;;;;;5.13;3.65;;;2.80;93.40;;;;;;4964435;28;20051;-85
2021/01/06 13:01:34;;;;;;;;;;;;;;;;;;;;;
2021/01/06 13:04:57;;;;;;;;;;;;;;;;;;;;;
2021/01/06 13:07:47;;;;;;;7.60;4.20;;;2.80;94.00;;;;;;4949655;29;20557;-85
2021/01/06 13:10:20;;;;;;;6.03;3.10;;;2.80;93.80;;;;;;4924715;29;20059;-85
2021/01/06 13:13:22;;;;;;;5.72;3.30;;;2.70;93.80;;;;;;4949468;28;20432;-85
2021/01/06 13:16:23;;;;;;;6.28;3.47;;;2.80;94.00;;;;;;4919447;29;20445;-86
2021/01/06 13:19:05;;;;;;;6.70;3.75;;;2.70;93.80;;;;;;4945630;28;20117;-85
2021/01/06 13:22:19;;;;;;;5.53;3.47;;;2.80;94.00;;;;;;4947487;28;20111;-85
2021/01/06 13:25:20;;;;;;;4.68;3.45;;;2.80;94.10;;;;;;4948895;28;20620;-85
2021/01/06 13:28:29;;;;;;;6.13;3.65;;;2.80;93.80;;;;;;4912892;29;20064;-85
2021/01/06 13:31:28;;;;;;;7.25;3.58;;;2.80;93.90;;;;;;4860905;29;20049;-84
2021/01/06 13:34:51;;;;;;;6.33;3.80;;;2.80;93.90;;;;;;4874014;29;20072;-84
2021/01/06 13:37:21;;;;;;;9.70;3.80;;;2.80;93.90;;;;;;4859936;29;20125;-85
2021/01/06 13:40:10;;;;;;;7.35;3.67;;;2.80;93.90;;;;;;4857419;29;20116;-84
2021/01/06 13:43:00;;;;;;;7.47;4.00;;;2.90;93.90;;;;;;4874405;29;20049;-84
2021/01/06 13:45:50;;;;;;;6.57;2.85;;;2.80;93.90;;;;;;4871261;29;20060;-84
2021/01/06 13:48:44;;;;;;;4.25;3.55;;;2.90;93.80;;;;;;4873911;29;20226;-83
2021/01/06 13:52:33;;;;;;;4.97;2.70;;;2.90;93.90;;;;;;4830460;29;20058;-85
2021/01/06 13:55:19;;;;;;;4.53;2.88;;;2.80;94.20;;;;;;4816361;29;20077;-85